createdAt,value
2018-01-24T00:01:30.010Z,57.40
2018-01-24T00:03:58.232Z,57.40
2018-01-24T00:06:27.166Z,58.50
2018-01-24T00:08:56.332Z,58.60
2018-01-24T00:11:25.252Z,58.00
2018-01-24T00:13:54.207Z,57.90
2018-01-24T00:16:22.363Z,58.80
2018-01-24T00:18:50.568Z,56.70
2018-01-24T00:21:18.728Z,56.30
2018-01-24T00:23:48.004Z,59.00
2018-01-24T00:26:16.149Z,59.00
2018-01-24T00:28:57.241Z,58.50
2018-01-24T00:31:26.500Z,56.80
2018-01-24T00:33:54.761Z,56.80
2018-01-24T00:36:22.927Z,57.40
2018-01-24T00:38:51.108Z,58.60
2018-01-24T00:41:19.299Z,58.70
2018-01-24T00:43:47.975Z,58.30
2018-01-24T00:46:16.140Z,58.20
2018-01-24T00:48:45.077Z,57.50
2018-01-24T00:51:13.296Z,56.60
2018-01-24T00:53:41.550Z,58.30
2018-01-24T00:56:09.710Z,57.00
2018-01-24T00:58:38.249Z,56.30
2018-01-24T01:01:07.104Z,57.50
2018-01-24T01:03:35.320Z,55.90
2018-01-24T01:06:04.649Z,56.80
2018-01-24T01:08:32.817Z,56.90
2018-01-24T01:11:01.855Z,56.50
2018-01-24T01:13:30.742Z,59.10
2018-01-24T01:15:59.159Z,57.00
2018-01-24T01:18:28.153Z,57.90
2018-01-24T01:20:57.151Z,57.10
2018-01-24T01:23:26.159Z,57.20
2018-01-24T01:25:55.127Z,57.50
2018-01-24T01:28:23.281Z,57.40
2018-01-24T01:30:52.255Z,59.40
2018-01-24T01:33:20.425Z,59.30
2018-01-24T01:35:49.331Z,58.00
2018-01-24T01:38:17.483Z,59.00
2018-01-24T01:40:45.924Z,58.90
2018-01-24T01:43:14.104Z,58.60
2018-01-24T01:45:44.065Z,58.60
2018-01-24T01:48:12.228Z,59.50
2018-01-24T01:50:40.380Z,57.20
2018-01-24T01:53:10.280Z,57.40
2018-01-24T01:55:38.513Z,58.50
2018-01-24T01:58:07.390Z,58.50
2018-01-24T02:00:35.573Z,59.80
2018-01-24T02:03:07.371Z,57.70
2018-01-24T02:05:35.519Z,58.40
2018-01-24T02:08:03.690Z,58.40
2018-01-24T02:10:32.091Z,59.10
2018-01-24T02:13:00.254Z,59.50
2018-01-24T02:15:28.399Z,60.20
2018-01-24T02:17:56.559Z,59.60
2018-01-24T02:20:24.801Z,59.20
2018-01-24T02:22:53.866Z,59.30
2018-01-24T02:25:22.029Z,60.40
2018-01-24T02:27:51.740Z,60.90
2018-01-24T02:30:23.679Z,61.10
2018-01-24T02:32:52.345Z,60.00
2018-01-24T02:35:20.512Z,60.20
2018-01-24T02:37:49.598Z,60.80
2018-01-24T02:40:24.998Z,61.90
2018-01-24T02:42:58.845Z,61.80
2018-01-24T02:45:27.006Z,62.50
2018-01-24T02:47:56.901Z,63.50
2018-01-24T02:50:25.999Z,63.60
2018-01-24T02:52:54.909Z,63.40
2018-01-24T02:55:25.321Z,64.50
2018-01-24T02:57:56.046Z,64.40
2018-01-24T03:00:24.242Z,64.40
2018-01-24T03:02:52.393Z,64.10
2018-01-24T03:05:20.578Z,64.60
2018-01-24T03:07:50.887Z,65.90
2018-01-24T03:10:19.027Z,65.00
2018-01-24T03:12:47.175Z,65.50
2018-01-24T03:15:15.335Z,65.10
2018-01-24T03:17:44.332Z,65.40
2018-01-24T03:20:13.337Z,65.80
2018-01-24T03:22:41.493Z,65.70
2018-01-24T03:25:10.810Z,67.30
2018-01-24T03:27:39.798Z,67.20
2018-01-24T03:30:08.056Z,67.40
2018-01-24T03:32:36.209Z,66.40
2018-01-24T03:35:05.074Z,67.00
2018-01-24T03:37:33.238Z,66.80
2018-01-24T03:40:09.645Z,67.80
2018-01-24T03:42:37.817Z,66.50
2018-01-24T03:45:14.201Z,67.90
2018-01-24T03:47:43.121Z,68.20
2018-01-24T03:50:30.642Z,68.20
2018-01-24T03:53:00.283Z,68.20
2018-01-24T03:55:28.588Z,69.00
2018-01-24T03:57:56.798Z,68.30
2018-01-24T04:00:25.085Z,69.20
2018-01-24T04:02:53.303Z,69.80
2018-01-24T04:05:21.497Z,70.60
2018-01-24T04:07:52.229Z,73.60
2018-01-24T04:10:20.956Z,73.00
2018-01-24T04:12:50.848Z,73.70
2018-01-24T04:15:19.758Z,75.10
2018-01-24T04:17:47.937Z,75.00
2018-01-24T04:20:16.181Z,76.10
2018-01-24T04:22:46.758Z,77.40
2018-01-24T04:25:15.099Z,77.40
2018-01-24T04:27:44.442Z,77.80
2018-01-24T04:30:12.607Z,77.70
2018-01-24T04:32:40.785Z,78.20
2018-01-24T04:35:09.726Z,79.20
2018-01-24T04:37:37.893Z,79.60
2018-01-24T04:40:06.921Z,80.10
2018-01-24T04:42:35.091Z,80.10
2018-01-24T04:45:03.850Z,80.30
2018-01-24T04:47:32.055Z,80.30
2018-01-24T04:50:03.121Z,80.10
2018-01-24T04:52:32.068Z,80.50
2018-01-24T04:55:00.305Z,80.90
2018-01-24T04:57:28.527Z,81.10
2018-01-24T04:59:58.602Z,81.80
2018-01-24T05:02:27.772Z,81.80
2018-01-24T05:04:55.940Z,82.30
2018-01-24T05:07:24.087Z,82.90
2018-01-24T05:09:53.127Z,83.60
2018-01-24T05:12:21.318Z,84.60
2018-01-24T05:14:49.482Z,85.10
2018-01-24T05:17:18.048Z,84.80
2018-01-24T05:19:46.305Z,85.20
2018-01-24T05:22:14.471Z,86.70
2018-01-24T05:24:43.380Z,86.30
2018-01-24T05:27:11.544Z,86.30
2018-01-24T05:29:40.893Z,86.50
2018-01-24T05:32:11.046Z,87.00
2018-01-24T05:34:39.201Z,86.90
2018-01-24T05:37:07.348Z,86.20
2018-01-24T05:39:35.817Z,86.40
2018-01-24T05:42:04.849Z,87.60
2018-01-24T05:44:33.000Z,88.50
2018-01-24T05:47:01.132Z,89.20
2018-01-24T05:49:29.323Z,89.00
2018-01-24T05:51:57.475Z,89.50
2018-01-24T05:54:26.890Z,90.10
2018-01-24T05:56:55.026Z,90.10
2018-01-24T05:59:23.554Z,90.30
2018-01-24T06:01:51.792Z,90.90
2018-01-24T06:04:19.930Z,91.10
2018-01-24T06:06:48.100Z,91.00
2018-01-24T06:09:16.345Z,91.10
2018-01-24T06:11:44.518Z,91.60
2018-01-24T06:14:12.664Z,91.30
2018-01-24T06:16:40.842Z,91.20
2018-01-24T06:19:09.029Z,91.40
2018-01-24T06:21:37.197Z,91.70
2018-01-24T06:24:06.102Z,91.40
2018-01-24T06:26:34.261Z,91.40
2018-01-24T06:29:02.564Z,91.60
2018-01-24T06:31:30.710Z,91.40
2018-01-24T06:33:58.863Z,91.20
2018-01-24T06:36:27.840Z,90.90
2018-01-24T06:38:56.160Z,91.30
2018-01-24T06:41:24.321Z,92.60
2018-01-24T06:43:53.923Z,92.50
2018-01-24T06:46:23.786Z,92.50
2018-01-24T06:48:52.024Z,92.60
2018-01-24T06:51:22.663Z,92.90
2018-01-24T06:53:51.585Z,93.80
2018-01-24T06:56:19.736Z,93.80
2018-01-24T06:58:48.020Z,93.80
2018-01-24T07:01:16.168Z,93.60
2018-01-24T07:03:46.100Z,91.90
2018-01-24T07:06:16.611Z,91.90
2018-01-24T07:08:45.420Z,91.50
2018-01-24T07:11:13.561Z,91.30
2018-01-24T07:13:53.548Z,91.20
2018-01-24T07:16:23.056Z,91.80
2018-01-24T07:18:51.632Z,92.00
2018-01-24T07:21:19.791Z,91.80
2018-01-24T07:23:48.700Z,92.80
2018-01-24T07:26:16.862Z,92.70
2018-01-24T07:28:46.323Z,93.60
2018-01-24T07:31:15.233Z,93.50
2018-01-24T07:33:43.397Z,93.50
2018-01-24T07:36:11.535Z,93.60
2018-01-24T07:38:39.680Z,92.70
2018-01-24T07:41:07.826Z,93.00
2018-01-24T07:43:35.975Z,93.60
2018-01-24T07:46:04.813Z,93.60
2018-01-24T07:48:33.847Z,93.00
2018-01-24T07:51:01.990Z,93.00
2018-01-24T07:53:30.140Z,92.80
2018-01-24T07:55:58.283Z,92.60
2018-01-24T07:58:26.481Z,91.70
2018-01-24T08:00:54.623Z,92.30
2018-01-24T08:03:23.981Z,93.80
2018-01-24T08:05:54.842Z,97.20
2018-01-24T08:08:23.032Z,97.30
2018-01-24T08:10:52.926Z,97.60
2018-01-24T08:13:21.116Z,97.00
2018-01-24T08:15:50.877Z,95.50
2018-01-24T08:18:20.084Z,94.20
2018-01-24T08:20:49.056Z,92.90
2018-01-24T08:23:19.613Z,92.50
2018-01-24T08:25:51.090Z,91.90
2018-01-24T08:28:19.248Z,91.60
2018-01-24T08:30:47.407Z,91.00
2018-01-24T08:33:15.696Z,90.50
2018-01-24T08:35:44.301Z,90.00
2018-01-24T08:38:14.233Z,89.50
2018-01-24T08:40:42.828Z,88.10
2018-01-24T08:43:12.244Z,88.70
2018-01-24T08:45:42.156Z,88.90
2018-01-24T08:48:13.354Z,88.70
2018-01-24T08:50:41.575Z,88.10
2018-01-24T08:53:09.723Z,87.50
2018-01-24T08:55:38.869Z,87.40
2018-01-24T08:58:07.764Z,87.10
2018-01-24T09:00:35.988Z,86.20
2018-01-24T09:03:04.939Z,86.90
2018-01-24T09:05:34.254Z,83.80
2018-01-24T09:08:04.197Z,83.80
2018-01-24T09:10:33.372Z,84.90
2018-01-24T09:13:03.988Z,85.20
2018-01-24T09:15:33.240Z,84.20
2018-01-24T09:18:02.362Z,82.90
2018-01-24T09:20:30.687Z,83.10
2018-01-24T09:22:58.851Z,83.50
2018-01-24T09:25:27.583Z,82.20
2018-01-24T09:27:55.763Z,82.30
2018-01-24T09:30:24.032Z,82.00
2018-01-24T09:32:52.197Z,80.20
2018-01-24T09:35:20.962Z,79.90
2018-01-24T09:37:50.194Z,80.70
2018-01-24T09:40:19.896Z,78.40
2018-01-24T09:42:48.909Z,77.70
2018-01-24T09:45:17.466Z,77.70
2018-01-24T09:47:47.388Z,75.70
2018-01-24T09:50:15.613Z,75.10
2018-01-24T09:52:43.807Z,74.70
2018-01-24T09:55:11.975Z,74.60
2018-01-24T09:57:41.057Z,74.70
2018-01-24T10:00:11.391Z,75.10
2018-01-24T10:02:42.071Z,73.80
2018-01-24T10:05:10.245Z,75.10
2018-01-24T10:07:39.130Z,74.60
2018-01-24T10:10:08.339Z,74.20
2018-01-24T10:12:36.731Z,72.00
2018-01-24T10:15:05.323Z,72.70
2018-01-24T10:17:33.465Z,71.00
2018-01-24T10:20:01.687Z,70.70
2018-01-24T10:22:29.926Z,71.70
2018-01-24T10:24:58.071Z,71.10
2018-01-24T10:27:26.220Z,70.60
2018-01-24T10:29:55.464Z,69.90
2018-01-24T10:32:24.068Z,69.50
2018-01-24T10:34:52.194Z,71.10
2018-01-24T10:37:20.335Z,70.20
2018-01-24T10:39:48.496Z,69.70
2018-01-24T10:42:16.669Z,68.20
2018-01-24T10:44:45.594Z,68.00
2018-01-24T10:47:14.394Z,68.00
2018-01-24T10:50:01.553Z,67.90
2018-01-24T10:52:29.709Z,67.80
2018-01-24T10:54:57.870Z,66.80
2018-01-24T10:57:27.128Z,66.70
2018-01-24T10:59:58.915Z,66.90
2018-01-24T11:02:29.025Z,66.50
2018-01-24T11:04:57.216Z,65.90
2018-01-24T11:07:25.363Z,67.40
2018-01-24T11:09:55.484Z,66.90
2018-01-24T11:12:25.101Z,67.20
2018-01-24T11:14:53.239Z,66.80
2018-01-24T11:17:22.343Z,66.10
2018-01-24T11:19:50.947Z,65.00
2018-01-24T11:22:19.864Z,63.20
2018-01-24T11:24:48.020Z,63.30
2018-01-24T11:27:16.178Z,62.80
2018-01-24T11:29:45.209Z,61.90
2018-01-24T11:32:22.077Z,61.90
2018-01-24T11:34:50.252Z,60.10
2018-01-24T11:37:18.404Z,60.20
2018-01-24T11:39:46.672Z,60.00
2018-01-24T11:42:15.597Z,60.10
2018-01-24T11:44:43.767Z,60.10
2018-01-24T11:47:12.516Z,58.80
2018-01-24T11:49:40.814Z,58.90
2018-01-24T11:52:08.971Z,59.70
2018-01-24T11:54:37.161Z,59.70
2018-01-24T11:57:05.321Z,58.50
2018-01-24T11:59:34.308Z,58.30
2018-01-24T12:02:03.229Z,57.70
2018-01-24T12:04:31.739Z,57.70
2018-01-24T12:06:59.886Z,57.40
2018-01-24T12:09:28.068Z,57.00
2018-01-24T12:11:56.269Z,57.00
2018-01-24T12:14:24.493Z,58.90
2018-01-24T12:16:52.642Z,57.40
2018-01-24T12:19:21.153Z,58.30
2018-01-24T12:21:50.144Z,56.10
2018-01-24T12:24:18.328Z,57.70
2018-01-24T12:26:46.490Z,56.90
2018-01-24T12:29:14.654Z,57.30
2018-01-24T12:31:43.625Z,57.60
2018-01-24T12:34:11.839Z,57.50
2018-01-24T12:36:40.001Z,55.30
2018-01-24T12:39:09.942Z,55.40
2018-01-24T12:41:38.104Z,55.40
2018-01-24T12:44:06.265Z,56.90
2018-01-24T12:46:35.656Z,54.70
2018-01-24T12:49:04.858Z,55.00
2018-01-24T12:51:33.778Z,54.20
2018-01-24T12:54:03.994Z,54.10
2018-01-24T12:56:32.200Z,55.30
2018-01-24T12:59:00.377Z,56.20
2018-01-24T13:01:28.556Z,55.20
2018-01-24T13:03:56.798Z,54.60
2018-01-24T13:06:25.011Z,54.30
2018-01-24T13:08:53.251Z,55.50
2018-01-24T13:11:21.447Z,55.20
2018-01-24T13:13:49.605Z,55.40
2018-01-24T13:16:17.786Z,55.10
2018-01-24T13:18:45.972Z,54.60
2018-01-24T13:21:14.600Z,54.70
2018-01-24T13:23:42.802Z,52.50
2018-01-24T13:26:10.969Z,52.20
2018-01-24T13:28:39.262Z,51.50
2018-01-24T13:31:07.429Z,52.80
2018-01-24T13:33:38.150Z,52.00
2018-01-24T13:36:06.972Z,51.40
2018-01-24T13:38:35.592Z,52.00
2018-01-24T13:41:03.734Z,52.00
2018-01-24T13:43:31.902Z,50.40
2018-01-24T13:46:00.065Z,51.20
2018-01-24T13:48:29.081Z,51.20
2018-01-24T13:50:58.439Z,51.40
2018-01-24T13:53:27.389Z,48.60
2018-01-24T13:55:56.527Z,49.30
2018-01-24T13:58:25.849Z,49.90
2018-01-24T14:00:54.287Z,50.30
2018-01-24T14:03:22.729Z,49.50
2018-01-24T14:05:51.759Z,49.10
2018-01-24T14:08:20.062Z,48.90
2018-01-24T14:10:48.878Z,49.90
2018-01-24T14:13:17.779Z,46.50
2018-01-24T14:15:47.933Z,46.80
2018-01-24T14:18:17.556Z,46.80
2018-01-24T14:20:46.487Z,45.70
2018-01-24T14:23:15.443Z,45.60
2018-01-24T14:25:46.688Z,45.00
2018-01-24T14:28:16.111Z,45.30
2018-01-24T14:30:44.984Z,45.30
2018-01-24T14:33:13.700Z,43.90
2018-01-24T14:35:41.863Z,44.50
2018-01-24T14:38:10.828Z,42.50
2018-01-24T14:40:39.309Z,43.30
2018-01-24T14:43:07.454Z,43.50
2018-01-24T14:45:37.391Z,42.30
2018-01-24T14:48:05.659Z,42.90
2018-01-24T14:50:33.779Z,43.20
2018-01-24T14:53:03.405Z,43.80
2018-01-24T14:55:31.585Z,43.80
2018-01-24T14:57:59.817Z,43.90
2018-01-24T15:00:29.662Z,44.80
2018-01-24T15:02:58.586Z,44.80
2018-01-24T15:05:27.309Z,45.10
2018-01-24T15:07:56.943Z,45.50
2018-01-24T15:10:26.794Z,45.90
2018-01-24T15:12:55.001Z,46.20
2018-01-24T15:15:23.230Z,46.10
2018-01-24T15:17:52.684Z,46.10
2018-01-24T15:20:22.048Z,45.90
2018-01-24T15:22:51.061Z,45.80
2018-01-24T15:25:19.730Z,47.40
2018-01-24T15:27:47.920Z,46.80
2018-01-24T15:30:17.509Z,48.80
2018-01-24T15:32:46.530Z,48.00
2018-01-24T15:35:16.963Z,49.20
2018-01-24T15:37:45.998Z,49.70
2018-01-24T15:40:14.153Z,49.70
2018-01-24T15:42:42.371Z,50.60
2018-01-24T15:45:12.248Z,50.80
2018-01-24T15:47:40.730Z,50.70
2018-01-24T15:50:11.529Z,52.80
2018-01-24T15:52:41.284Z,59.10
2018-01-24T15:55:09.462Z,59.10
2018-01-24T15:57:39.026Z,62.60
2018-01-24T16:00:09.205Z,65.60
2018-01-24T16:02:37.586Z,66.10
2018-01-24T16:05:06.726Z,67.50
2018-01-24T16:07:35.727Z,72.50
2018-01-24T16:10:04.727Z,74.70
2018-01-24T16:12:33.343Z,74.70
2018-01-24T16:15:01.893Z,76.30
2018-01-24T16:17:30.058Z,75.70
2018-01-24T16:19:59.080Z,78.10
2018-01-24T16:22:27.224Z,78.20
2018-01-24T16:24:56.387Z,79.10
2018-01-24T16:27:24.543Z,79.10
2018-01-24T16:29:53.413Z,80.90
2018-01-24T16:32:21.777Z,82.10
2018-01-24T16:34:50.693Z,79.30
2018-01-24T16:37:18.849Z,79.30
2018-01-24T16:39:47.125Z,80.50
2018-01-24T16:42:15.278Z,85.20
2018-01-24T16:44:44.189Z,87.80
2018-01-24T16:47:12.874Z,87.70
2018-01-24T16:49:47.066Z,87.90
2018-01-24T16:52:15.478Z,87.60
2018-01-24T16:54:43.816Z,87.60
2018-01-24T16:57:12.400Z,86.40
2018-01-24T16:59:44.195Z,86.50
2018-01-24T17:02:12.455Z,89.10
2018-01-24T17:04:41.588Z,89.00
2018-01-24T17:07:09.747Z,91.40
2018-01-24T17:09:44.138Z,92.40
2018-01-24T17:12:13.618Z,92.50
2018-01-24T17:14:42.508Z,92.50
2018-01-24T17:17:10.688Z,92.20
2018-01-24T17:19:41.731Z,91.60
2018-01-24T17:22:09.904Z,92.00
2018-01-24T17:24:39.309Z,92.20
2018-01-24T17:27:08.157Z,91.00
2018-01-24T17:29:36.533Z,91.50
2018-01-24T17:32:04.686Z,90.60
2018-01-24T17:34:32.871Z,90.20
2018-01-24T17:37:01.797Z,91.60
2018-01-24T17:39:31.988Z,91.60
2018-01-24T17:42:01.181Z,92.60
2018-01-24T17:44:29.339Z,91.90
2018-01-24T17:46:57.500Z,92.00
2018-01-24T17:49:26.510Z,90.40
2018-01-24T17:51:55.648Z,90.50
2018-01-24T17:54:23.830Z,92.00
2018-01-24T17:56:51.985Z,91.90
2018-01-24T17:59:22.287Z,90.60
2018-01-24T18:01:50.524Z,91.10
2018-01-24T18:04:20.112Z,91.40
2018-01-24T18:06:48.277Z,86.70
2018-01-24T18:09:24.462Z,88.80
2018-01-24T18:11:53.093Z,88.50
2018-01-24T18:14:21.353Z,89.90
2018-01-24T18:16:49.506Z,89.90
2018-01-24T18:19:17.684Z,86.70
2018-01-24T18:21:45.874Z,86.60
2018-01-24T18:24:14.884Z,89.10
2018-01-24T18:26:43.059Z,89.10
2018-01-24T18:29:18.462Z,88.70
2018-01-24T18:31:55.288Z,90.30
2018-01-24T18:34:23.450Z,89.90
2018-01-24T18:36:53.355Z,90.60
2018-01-24T18:39:23.603Z,90.80
2018-01-24T18:41:51.760Z,90.80
2018-01-24T18:44:20.691Z,91.10
2018-01-24T18:46:49.790Z,91.10
2018-01-24T18:49:18.751Z,91.70
2018-01-24T18:51:46.918Z,91.30
2018-01-24T18:54:15.824Z,88.70
2018-01-24T18:56:44.946Z,86.20
2018-01-24T18:59:15.051Z,87.40
2018-01-24T19:01:43.220Z,88.10
2018-01-24T19:04:11.365Z,87.10
2018-01-24T19:06:39.549Z,87.40
2018-01-24T19:09:08.850Z,87.60
2018-01-24T19:11:37.018Z,87.60
2018-01-24T19:14:05.233Z,86.40
2018-01-24T19:16:34.013Z,86.80
2018-01-24T19:19:05.038Z,88.70
2018-01-24T19:21:33.316Z,88.70
2018-01-24T19:24:01.491Z,86.90
2018-01-24T19:26:32.465Z,86.80
2018-01-24T19:29:00.645Z,86.40
2018-01-24T19:31:28.797Z,85.60
2018-01-24T19:33:56.984Z,78.20
2018-01-24T19:36:26.002Z,77.60
2018-01-24T19:38:55.321Z,71.30
2018-01-24T19:41:23.480Z,71.90
2018-01-24T19:43:52.434Z,70.50
2018-01-24T19:46:21.404Z,72.20
2018-01-24T19:48:50.493Z,72.20
2018-01-24T19:51:19.607Z,68.00
2018-01-24T19:53:47.759Z,66.60
2018-01-24T19:56:17.461Z,64.50
2018-01-24T19:58:45.695Z,63.40
2018-01-24T20:01:13.871Z,62.60
2018-01-24T20:03:42.042Z,59.70
2018-01-24T20:06:10.197Z,61.30
2018-01-24T20:08:38.914Z,62.20
2018-01-24T20:11:07.239Z,61.60
2018-01-24T20:13:35.525Z,61.70
2018-01-24T20:16:03.680Z,60.50
2018-01-24T20:18:31.858Z,59.30
2018-01-24T20:21:00.006Z,59.50
2018-01-24T20:23:29.146Z,59.00
2018-01-24T20:25:58.014Z,59.00
2018-01-24T20:28:27.185Z,59.10
2018-01-24T20:30:55.331Z,58.20
2018-01-24T20:33:23.519Z,58.80
2018-01-24T20:35:51.705Z,58.70
2018-01-24T20:38:21.123Z,58.80
2018-01-24T20:40:49.296Z,58.70
2018-01-24T20:43:18.254Z,59.50
2018-01-24T20:45:46.783Z,59.60
2018-01-24T20:48:15.846Z,60.10
2018-01-24T20:50:44.020Z,60.70
2018-01-24T20:53:13.359Z,62.30
2018-01-24T20:55:41.744Z,61.50
2018-01-24T20:58:09.904Z,57.50
2018-01-24T21:00:38.777Z,59.60
2018-01-24T21:03:08.454Z,61.20
2018-01-24T21:05:37.193Z,61.10
2018-01-24T21:08:05.346Z,61.00
2018-01-24T21:10:33.500Z,62.00
2018-01-24T21:13:01.681Z,62.70
2018-01-24T21:15:29.865Z,64.30
2018-01-24T21:17:59.493Z,62.90
2018-01-24T21:20:28.344Z,64.60
2018-01-24T21:22:57.639Z,64.50
2018-01-24T21:25:26.529Z,65.20
2018-01-24T21:27:56.195Z,66.50
2018-01-24T21:30:25.208Z,66.40
2018-01-24T21:33:05.518Z,67.10
2018-01-24T21:35:45.359Z,67.80
2018-01-24T21:38:14.368Z,67.60
2018-01-24T21:40:42.680Z,67.00
2018-01-24T21:43:11.706Z,67.80
2018-01-24T21:45:40.652Z,67.80
2018-01-24T21:48:10.585Z,67.30
2018-01-24T21:50:38.822Z,68.70
2018-01-24T21:53:08.705Z,69.40
2018-01-24T21:55:41.240Z,69.00
2018-01-24T21:58:11.712Z,69.00
2018-01-24T22:00:40.955Z,67.60
2018-01-24T22:03:09.736Z,68.10
2018-01-24T22:05:39.778Z,69.30
2018-01-24T22:08:15.300Z,69.90
2018-01-24T22:10:44.272Z,70.10
2018-01-24T22:13:12.578Z,71.40
2018-01-24T22:15:42.417Z,71.70
2018-01-24T22:18:13.845Z,72.20
2018-01-24T22:20:44.132Z,72.40
2018-01-24T22:23:13.967Z,72.60
2018-01-24T22:25:42.214Z,73.90
2018-01-24T22:28:13.247Z,73.50
2018-01-24T22:30:42.290Z,74.20
2018-01-24T22:33:14.038Z,73.00
2018-01-24T22:35:44.393Z,71.50
2018-01-24T22:38:12.969Z,72.50
2018-01-24T22:40:44.231Z,73.10
2018-01-24T22:43:12.517Z,73.60
2018-01-24T22:45:41.345Z,74.10
2018-01-24T22:48:12.947Z,73.60
2018-01-24T22:50:45.733Z,74.10
2018-01-24T22:53:17.270Z,74.60
2018-01-24T22:55:46.216Z,74.20
2018-01-24T22:58:15.160Z,75.20
2018-01-24T23:00:44.820Z,74.40
2018-01-24T23:03:12.988Z,75.30
2018-01-24T23:05:45.504Z,74.30
2018-01-24T23:08:15.042Z,74.90
2018-01-24T23:10:43.555Z,76.10
2018-01-24T23:13:13.487Z,75.10
2018-01-24T23:15:41.955Z,76.00
2018-01-24T23:18:11.345Z,76.80
2018-01-24T23:20:40.387Z,76.20
2018-01-24T23:23:09.485Z,77.00
2018-01-24T23:25:40.943Z,77.60
2018-01-24T23:28:09.302Z,77.60
2018-01-24T23:30:38.404Z,78.70
2018-01-24T23:33:08.004Z,79.00
2018-01-24T23:35:39.908Z,78.80
2018-01-24T23:38:08.109Z,79.20
2018-01-24T23:40:38.054Z,80.30
2018-01-24T23:43:07.886Z,80.40
2018-01-24T23:45:36.749Z,80.50
2018-01-24T23:48:05.588Z,81.90
2018-01-24T23:50:35.968Z,80.40
2018-01-24T23:53:05.853Z,82.10
2018-01-24T23:55:34.985Z,83.50
2018-01-24T23:58:03.611Z,83.20
